sensor_id;sensor_type;location;lat;lon;timestamp;temperature;humidity
2441;DHT22;1231;53.988;9.470;2022-11-15T00:00:21;7.40;88.40
2441;DHT22;1231;53.988;9.470;2022-11-15T00:02:55;7.40;88.50
2441;DHT22;1231;53.988;9.470;2022-11-15T00:05:25;7.40;88.60
2441;DHT22;1231;53.988;9.470;2022-11-15T00:07:57;7.40;88.50
2441;DHT22;1231;53.988;9.470;2022-11-15T00:10:27;7.40;88.50
2441;DHT22;1231;53.988;9.470;2022-11-15T00:12:58;7.40;88.50
2441;DHT22;1231;53.988;9.470;2022-11-15T00:15:28;7.50;88.70
2441;DHT22;1231;53.988;9.470;2022-11-15T00:17:59;7.50;88.60
2441;DHT22;1231;53.988;9.470;2022-11-15T00:20:29;7.50;88.60
2441;DHT22;1231;53.988;9.470;2022-11-15T00:23:03;7.50;88.60
2441;DHT22;1231;53.988;9.470;2022-11-15T00:25:34;7.50;88.50
2441;DHT22;1231;53.988;9.470;2022-11-15T00:28:04;7.50;88.60
2441;DHT22;1231;53.988;9.470;2022-11-15T00:30:35;7.50;88.50
2441;DHT22;1231;53.988;9.470;2022-11-15T00:33:06;7.50;88.60
2441;DHT22;1231;53.988;9.470;2022-11-15T00:35:37;7.40;88.50
2441;DHT22;1231;53.988;9.470;2022-11-15T00:38:07;7.40;88.50
2441;DHT22;1231;53.988;9.470;2022-11-15T00:40:38;7.40;88.40
2441;DHT22;1231;53.988;9.470;2022-11-15T00:43:08;7.40;88.30
2441;DHT22;1231;53.988;9.470;2022-11-15T00:45:39;7.40;88.30
2441;DHT22;1231;53.988;9.470;2022-11-15T00:48:09;7.30;88.30
2441;DHT22;1231;53.988;9.470;2022-11-15T00:50:40;7.40;88.30
2441;DHT22;1231;53.988;9.470;2022-11-15T00:53:11;7.40;88.40
2441;DHT22;1231;53.988;9.470;2022-11-15T00:55:41;7.50;88.50
2441;DHT22;1231;53.988;9.470;2022-11-15T00:58:12;7.50;88.50
2441;DHT22;1231;53.988;9.470;2022-11-15T01:00:42;7.60;88.60
2441;DHT22;1231;53.988;9.470;2022-11-15T01:03:13;7.60;88.60
2441;DHT22;1231;53.988;9.470;2022-11-15T01:05:43;7.70;88.60
2441;DHT22;1231;53.988;9.470;2022-11-15T01:08:15;7.80;88.70
2441;DHT22;1231;53.988;9.470;2022-11-15T01:10:46;7.80;88.60
2441;DHT22;1231;53.988;9.470;2022-11-15T01:13:16;7.90;88.50
2441;DHT22;1231;53.988;9.470;2022-11-15T01:15:47;7.90;88.40
2441;DHT22;1231;53.988;9.470;2022-11-15T01:18:18;7.90;88.30
2441;DHT22;1231;53.988;9.470;2022-11-15T01:20:48;7.90;88.20
2441;DHT22;1231;53.988;9.470;2022-11-15T01:23:19;7.90;88.10
2441;DHT22;1231;53.988;9.470;2022-11-15T01:25:49;7.90;87.90
2441;DHT22;1231;53.988;9.470;2022-11-15T01:28:20;7.90;87.80
2441;DHT22;1231;53.988;9.470;2022-11-15T01:30:50;7.80;87.90
2441;DHT22;1231;53.988;9.470;2022-11-15T01:33:21;7.70;87.70
2441;DHT22;1231;53.988;9.470;2022-11-15T01:35:52;7.70;87.60
2441;DHT22;1231;53.988;9.470;2022-11-15T01:38:23;7.60;87.60
2441;DHT22;1231;53.988;9.470;2022-11-15T01:40:53;7.60;87.70
2441;DHT22;1231;53.988;9.470;2022-11-15T01:43:26;7.60;87.80
2441;DHT22;1231;53.988;9.470;2022-11-15T01:46:27;7.60;88.00
2441;DHT22;1231;53.988;9.470;2022-11-15T01:49:03;7.60;88.10
2441;DHT22;1231;53.988;9.470;2022-11-15T01:51:35;7.70;88.10
2441;DHT22;1231;53.988;9.470;2022-11-15T01:54:12;7.70;88.20
2441;DHT22;1231;53.988;9.470;2022-11-15T01:59:45;7.80;88.20
2441;DHT22;1231;53.988;9.470;2022-11-15T02:02:17;7.80;88.20
2441;DHT22;1231;53.988;9.470;2022-11-15T02:04:47;7.80;88.20
2441;DHT22;1231;53.988;9.470;2022-11-15T02:07:20;7.80;88.10
2441;DHT22;1231;53.988;9.470;2022-11-15T02:09:51;7.70;88.10
2441;DHT22;1231;53.988;9.470;2022-11-15T02:12:22;7.70;88.00
2441;DHT22;1231;53.988;9.470;2022-11-15T02:14:54;7.70;87.90
2441;DHT22;1231;53.988;9.470;2022-11-15T02:17:44;7.60;87.90
2441;DHT22;1231;53.988;9.470;2022-11-15T02:23:31;7.50;87.80
2441;DHT22;1231;53.988;9.470;2022-11-15T02:26:30;7.50;87.70
2441;DHT22;1231;53.988;9.470;2022-11-15T02:32:06;7.30;87.50
2441;DHT22;1231;53.988;9.470;2022-11-15T02:37:45;7.20;87.50
2441;DHT22;1231;53.988;9.470;2022-11-15T02:43:11;7.00;87.40
2441;DHT22;1231;53.988;9.470;2022-11-15T02:49:18;6.90;87.40
2441;DHT22;1231;53.988;9.470;2022-11-15T02:51:50;6.90;87.50
2441;DHT22;1231;53.988;9.470;2022-11-15T02:54:24;6.80;87.50
2441;DHT22;1231;53.988;9.470;2022-11-15T02:57:04;6.80;87.50
2441;DHT22;1231;53.988;9.470;2022-11-15T03:06:01;6.60;87.30
2441;DHT22;1231;53.988;9.470;2022-11-15T03:09:09;6.60;87.40
2441;DHT22;1231;53.988;9.470;2022-11-15T03:11:48;6.50;87.50
2441;DHT22;1231;53.988;9.470;2022-11-15T03:14:30;6.50;87.80
2441;DHT22;1231;53.988;9.470;2022-11-15T03:17:24;6.50;88.00
2441;DHT22;1231;53.988;9.470;2022-11-15T03:19:59;6.50;88.00
2441;DHT22;1231;53.988;9.470;2022-11-15T03:22:36;6.40;87.90
2441;DHT22;1231;53.988;9.470;2022-11-15T03:25:10;6.40;87.80
2441;DHT22;1231;53.988;9.470;2022-11-15T03:27:45;6.40;87.80
2441;DHT22;1231;53.988;9.470;2022-11-15T03:30:17;6.40;87.90
2441;DHT22;1231;53.988;9.470;2022-11-15T03:32:54;6.40;87.90
2441;DHT22;1231;53.988;9.470;2022-11-15T03:35:33;6.30;87.90
2441;DHT22;1231;53.988;9.470;2022-11-15T03:46:14;6.20;87.90
2441;DHT22;1231;53.988;9.470;2022-11-15T03:49:11;6.20;87.90
2441;DHT22;1231;53.988;9.470;2022-11-15T03:51:44;6.10;87.90
2441;DHT22;1231;53.988;9.470;2022-11-15T03:54:15;6.10;87.90
2441;DHT22;1231;53.988;9.470;2022-11-15T03:56:45;6.10;88.00
2441;DHT22;1231;53.988;9.470;2022-11-15T03:59:16;6.10;88.10
2441;DHT22;1231;53.988;9.470;2022-11-15T04:01:46;6.10;88.20
2441;DHT22;1231;53.988;9.470;2022-11-15T04:04:17;6.10;88.40
2441;DHT22;1231;53.988;9.470;2022-11-15T04:06:47;6.10;88.70
2441;DHT22;1231;53.988;9.470;2022-11-15T04:09:18;6.20;88.80
2441;DHT22;1231;53.988;9.470;2022-11-15T04:11:49;6.20;88.90
2441;DHT22;1231;53.988;9.470;2022-11-15T04:14:19;6.20;89.10
2441;DHT22;1231;53.988;9.470;2022-11-15T04:16:50;6.20;89.20
2441;DHT22;1231;53.988;9.470;2022-11-15T04:19:20;6.30;89.30
2441;DHT22;1231;53.988;9.470;2022-11-15T04:22:09;6.30;89.40
2441;DHT22;1231;53.988;9.470;2022-11-15T04:24:58;6.40;89.50
2441;DHT22;1231;53.988;9.470;2022-11-15T04:27:29;6.40;89.40
2441;DHT22;1231;53.988;9.470;2022-11-15T04:29:59;6.40;89.50
2441;DHT22;1231;53.988;9.470;2022-11-15T04:32:30;6.50;89.50
2441;DHT22;1231;53.988;9.470;2022-11-15T04:35:00;6.50;89.70
2441;DHT22;1231;53.988;9.470;2022-11-15T04:37:31;6.60;89.80
2441;DHT22;1231;53.988;9.470;2022-11-15T04:40:01;6.70;89.80
2441;DHT22;1231;53.988;9.470;2022-11-15T04:42:32;6.80;89.90
2441;DHT22;1231;53.988;9.470;2022-11-15T04:45:03;6.90;89.90
2441;DHT22;1231;53.988;9.470;2022-11-15T04:47:33;7.00;89.80
2441;DHT22;1231;53.988;9.470;2022-11-15T04:50:04;7.10;89.80
2441;DHT22;1231;53.988;9.470;2022-11-15T04:52:35;7.20;89.80
2441;DHT22;1231;53.988;9.470;2022-11-15T04:55:05;7.20;89.70
2441;DHT22;1231;53.988;9.470;2022-11-15T04:57:37;7.30;89.60
2441;DHT22;1231;53.988;9.470;2022-11-15T05:00:11;7.40;89.50
2441;DHT22;1231;53.988;9.470;2022-11-15T05:02:42;7.50;89.40
2441;DHT22;1231;53.988;9.470;2022-11-15T05:05:31;7.50;89.30
2441;DHT22;1231;53.988;9.470;2022-11-15T05:08:02;7.60;89.30
2441;DHT22;1231;53.988;9.470;2022-11-15T05:10:33;7.70;89.20
2441;DHT22;1231;53.988;9.470;2022-11-15T05:13:03;7.70;89.10
2441;DHT22;1231;53.988;9.470;2022-11-15T05:15:34;7.70;89.00
2441;DHT22;1231;53.988;9.470;2022-11-15T05:18:05;7.80;88.90
2441;DHT22;1231;53.988;9.470;2022-11-15T05:20:35;7.80;88.80
2441;DHT22;1231;53.988;9.470;2022-11-15T05:23:06;7.90;88.70
2441;DHT22;1231;53.988;9.470;2022-11-15T05:25:36;7.90;88.60
2441;DHT22;1231;53.988;9.470;2022-11-15T05:28:07;7.90;88.50
2441;DHT22;1231;53.988;9.470;2022-11-15T05:30:38;8.00;88.60
2441;DHT22;1231;53.988;9.470;2022-11-15T05:33:09;8.00;88.60
2441;DHT22;1231;53.988;9.470;2022-11-15T05:35:42;8.00;88.50
2441;DHT22;1231;53.988;9.470;2022-11-15T05:38:16;8.10;88.40
2441;DHT22;1231;53.988;9.470;2022-11-15T05:40:47;8.10;88.30
2441;DHT22;1231;53.988;9.470;2022-11-15T05:43:17;8.10;88.30
2441;DHT22;1231;53.988;9.470;2022-11-15T05:45:48;8.00;88.20
2441;DHT22;1231;53.988;9.470;2022-11-15T05:48:19;8.00;88.10
2441;DHT22;1231;53.988;9.470;2022-11-15T05:50:50;8.00;88.00
2441;DHT22;1231;53.988;9.470;2022-11-15T05:53:23;8.00;88.00
2441;DHT22;1231;53.988;9.470;2022-11-15T05:55:54;8.00;88.00
2441;DHT22;1231;53.988;9.470;2022-11-15T05:58:26;8.00;88.00
2441;DHT22;1231;53.988;9.470;2022-11-15T06:00:57;8.00;88.10
2441;DHT22;1231;53.988;9.470;2022-11-15T06:03:28;8.00;88.20
2441;DHT22;1231;53.988;9.470;2022-11-15T06:05:58;8.00;88.20
2441;DHT22;1231;53.988;9.470;2022-11-15T06:08:29;8.00;88.40
2441;DHT22;1231;53.988;9.470;2022-11-15T06:11:04;8.10;88.40
2441;DHT22;1231;53.988;9.470;2022-11-15T06:13:35;8.10;88.40
2441;DHT22;1231;53.988;9.470;2022-11-15T06:16:06;8.20;88.40
2441;DHT22;1231;53.988;9.470;2022-11-15T06:18:37;8.20;88.20
2441;DHT22;1231;53.988;9.470;2022-11-15T06:21:08;8.30;88.20
2441;DHT22;1231;53.988;9.470;2022-11-15T06:23:38;8.30;88.20
2441;DHT22;1231;53.988;9.470;2022-11-15T06:26:09;8.30;88.00
2441;DHT22;1231;53.988;9.470;2022-11-15T06:28:39;8.30;88.00
2441;DHT22;1231;53.988;9.470;2022-11-15T06:31:10;8.30;87.90
2441;DHT22;1231;53.988;9.470;2022-11-15T06:33:41;8.40;87.90
2441;DHT22;1231;53.988;9.470;2022-11-15T06:36:12;8.40;88.00
2441;DHT22;1231;53.988;9.470;2022-11-15T06:38:47;8.40;88.00
2441;DHT22;1231;53.988;9.470;2022-11-15T06:41:17;8.50;87.90
2441;DHT22;1231;53.988;9.470;2022-11-15T06:43:48;8.50;87.90
2441;DHT22;1231;53.988;9.470;2022-11-15T06:46:19;8.60;87.90
2441;DHT22;1231;53.988;9.470;2022-11-15T06:48:53;8.60;87.80
2441;DHT22;1231;53.988;9.470;2022-11-15T06:51:24;8.60;87.70
2441;DHT22;1231;53.988;9.470;2022-11-15T06:53:54;8.70;87.70
2441;DHT22;1231;53.988;9.470;2022-11-15T06:56:25;8.70;87.70
2441;DHT22;1231;53.988;9.470;2022-11-15T06:58:55;8.70;87.60
2441;DHT22;1231;53.988;9.470;2022-11-15T07:01:26;8.80;87.50
2441;DHT22;1231;53.988;9.470;2022-11-15T07:03:56;8.80;87.50
2441;DHT22;1231;53.988;9.470;2022-11-15T07:06:27;8.80;87.40
2441;DHT22;1231;53.988;9.470;2022-11-15T07:08:57;8.90;87.40
2441;DHT22;1231;53.988;9.470;2022-11-15T07:11:28;8.90;87.30
2441;DHT22;1231;53.988;9.470;2022-11-15T07:13:59;8.90;87.30
2441;DHT22;1231;53.988;9.470;2022-11-15T07:16:30;9.00;87.40
2441;DHT22;1231;53.988;9.470;2022-11-15T07:19:00;9.00;87.40
2441;DHT22;1231;53.988;9.470;2022-11-15T07:21:32;9.00;87.40
2441;DHT22;1231;53.988;9.470;2022-11-15T07:24:03;9.10;87.40
2441;DHT22;1231;53.988;9.470;2022-11-15T07:26:34;9.10;87.30
2441;DHT22;1231;53.988;9.470;2022-11-15T07:29:04;9.10;87.30
2441;DHT22;1231;53.988;9.470;2022-11-15T07:31:35;9.10;87.30
2441;DHT22;1231;53.988;9.470;2022-11-15T07:34:06;9.20;87.30
2441;DHT22;1231;53.988;9.470;2022-11-15T07:36:36;9.20;87.30
2441;DHT22;1231;53.988;9.470;2022-11-15T07:39:07;9.30;87.30
2441;DHT22;1231;53.988;9.470;2022-11-15T07:41:38;9.30;87.30
2441;DHT22;1231;53.988;9.470;2022-11-15T07:44:09;9.40;87.30
2441;DHT22;1231;53.988;9.470;2022-11-15T07:46:39;9.40;87.30
2441;DHT22;1231;53.988;9.470;2022-11-15T07:49:10;9.40;87.20
2441;DHT22;1231;53.988;9.470;2022-11-15T07:51:40;9.50;87.20
2441;DHT22;1231;53.988;9.470;2022-11-15T07:54:11;9.50;87.00
2441;DHT22;1231;53.988;9.470;2022-11-15T07:56:41;9.50;87.00
2441;DHT22;1231;53.988;9.470;2022-11-15T07:59:12;9.50;87.10
2441;DHT22;1231;53.988;9.470;2022-11-15T08:01:43;9.60;87.00
2441;DHT22;1231;53.988;9.470;2022-11-15T08:04:14;9.60;86.90
2441;DHT22;1231;53.988;9.470;2022-11-15T08:06:44;9.60;86.90
2441;DHT22;1231;53.988;9.470;2022-11-15T08:09:15;9.60;86.80
2441;DHT22;1231;53.988;9.470;2022-11-15T08:11:45;9.60;86.70
2441;DHT22;1231;53.988;9.470;2022-11-15T08:14:16;9.70;86.70
2441;DHT22;1231;53.988;9.470;2022-11-15T08:16:47;9.70;86.70
2441;DHT22;1231;53.988;9.470;2022-11-15T08:19:18;9.70;86.70
2441;DHT22;1231;53.988;9.470;2022-11-15T08:21:48;9.70;86.70
2441;DHT22;1231;53.988;9.470;2022-11-15T08:24:19;9.80;86.70
2441;DHT22;1231;53.988;9.470;2022-11-15T08:26:50;9.80;86.70
2441;DHT22;1231;53.988;9.470;2022-11-15T08:29:21;9.80;86.70
2441;DHT22;1231;53.988;9.470;2022-11-15T08:31:54;9.80;86.70
2441;DHT22;1231;53.988;9.470;2022-11-15T08:34:26;9.90;86.70
2441;DHT22;1231;53.988;9.470;2022-11-15T08:36:56;10.00;86.60
2441;DHT22;1231;53.988;9.470;2022-11-15T08:39:27;10.00;86.50
2441;DHT22;1231;53.988;9.470;2022-11-15T08:41:57;10.10;86.40
2441;DHT22;1231;53.988;9.470;2022-11-15T08:44:28;10.10;86.30
2441;DHT22;1231;53.988;9.470;2022-11-15T08:46:58;10.10;86.10
2441;DHT22;1231;53.988;9.470;2022-11-15T08:49:29;10.10;86.00
2441;DHT22;1231;53.988;9.470;2022-11-15T08:52:00;10.10;86.00
2441;DHT22;1231;53.988;9.470;2022-11-15T08:54:30;10.20;86.10
2441;DHT22;1231;53.988;9.470;2022-11-15T08:57:02;10.30;86.20
2441;DHT22;1231;53.988;9.470;2022-11-15T08:59:32;10.30;85.90
2441;DHT22;1231;53.988;9.470;2022-11-15T09:02:03;10.40;85.80
2441;DHT22;1231;53.988;9.470;2022-11-15T09:04:34;10.40;85.80
2441;DHT22;1231;53.988;9.470;2022-11-15T09:07:05;10.50;85.90
2441;DHT22;1231;53.988;9.470;2022-11-15T09:09:36;10.50;85.80
2441;DHT22;1231;53.988;9.470;2022-11-15T09:12:07;10.60;85.80
2441;DHT22;1231;53.988;9.470;2022-11-15T09:14:38;10.70;85.80
2441;DHT22;1231;53.988;9.470;2022-11-15T09:17:09;10.70;85.60
2441;DHT22;1231;53.988;9.470;2022-11-15T09:19:39;10.80;85.20
2441;DHT22;1231;53.988;9.470;2022-11-15T09:22:10;10.80;85.10
2441;DHT22;1231;53.988;9.470;2022-11-15T09:24:40;10.90;84.90
2441;DHT22;1231;53.988;9.470;2022-11-15T09:27:11;10.90;84.80
2441;DHT22;1231;53.988;9.470;2022-11-15T09:29:42;11.00;84.70
2441;DHT22;1231;53.988;9.470;2022-11-15T09:32:13;11.00;84.60
2441;DHT22;1231;53.988;9.470;2022-11-15T09:34:43;11.00;84.70
2441;DHT22;1231;53.988;9.470;2022-11-15T09:37:14;11.10;84.70
2441;DHT22;1231;53.988;9.470;2022-11-15T09:39:44;11.10;84.70
2441;DHT22;1231;53.988;9.470;2022-11-15T09:42:34;11.10;84.60
2441;DHT22;1231;53.988;9.470;2022-11-15T09:45:20;11.10;84.50
2441;DHT22;1231;53.988;9.470;2022-11-15T09:50:52;11.10;84.20
2441;DHT22;1231;53.988;9.470;2022-11-15T09:53:34;11.10;84.30
2441;DHT22;1231;53.988;9.470;2022-11-15T09:56:22;11.20;84.20
2441;DHT22;1231;53.988;9.470;2022-11-15T09:59:23;11.20;84.20
2441;DHT22;1231;53.988;9.470;2022-11-15T10:04:46;11.30;84.00
2441;DHT22;1231;53.988;9.470;2022-11-15T10:12:51;11.50;83.90
2441;DHT22;1231;53.988;9.470;2022-11-15T10:15:23;11.50;83.80
2441;DHT22;1231;53.988;9.470;2022-11-15T10:18:05;11.50;83.60
2441;DHT22;1231;53.988;9.470;2022-11-15T10:20:46;11.50;83.50
2441;DHT22;1231;53.988;9.470;2022-11-15T10:23:20;11.60;83.40
2441;DHT22;1231;53.988;9.470;2022-11-15T10:25:54;11.60;83.20
2441;DHT22;1231;53.988;9.470;2022-11-15T10:28:29;11.60;82.70
2441;DHT22;1231;53.988;9.470;2022-11-15T10:31:01;11.70;82.90
2441;DHT22;1231;53.988;9.470;2022-11-15T10:33:38;11.70;83.10
2441;DHT22;1231;53.988;9.470;2022-11-15T10:38:51;11.80;82.80
2441;DHT22;1231;53.988;9.470;2022-11-15T10:44:18;11.90;82.80
2441;DHT22;1231;53.988;9.470;2022-11-15T10:49:27;12.00;82.80
2441;DHT22;1231;53.988;9.470;2022-11-15T10:52:18;12.00;82.80
2441;DHT22;1231;53.988;9.470;2022-11-15T10:55:12;12.00;82.80
2441;DHT22;1231;53.988;9.470;2022-11-15T10:58:03;12.10;82.80
2441;DHT22;1231;53.988;9.470;2022-11-15T11:00:36;12.10;82.70
2441;DHT22;1231;53.988;9.470;2022-11-15T11:03:34;12.10;82.60
2441;DHT22;1231;53.988;9.470;2022-11-15T11:08:52;12.10;82.40
2441;DHT22;1231;53.988;9.470;2022-11-15T11:11:24;12.10;82.40
2441;DHT22;1231;53.988;9.470;2022-11-15T11:13:54;12.10;82.50
2441;DHT22;1231;53.988;9.470;2022-11-15T11:25:50;12.00;82.70
2441;DHT22;1231;53.988;9.470;2022-11-15T11:34:04;12.00;82.60
2441;DHT22;1231;53.988;9.470;2022-11-15T11:36:57;12.00;82.70
2441;DHT22;1231;53.988;9.470;2022-11-15T11:42:54;12.00;82.70
2441;DHT22;1231;53.988;9.470;2022-11-15T11:51:04;12.10;82.70
2441;DHT22;1231;53.988;9.470;2022-11-15T11:53:43;12.10;82.70
2441;DHT22;1231;53.988;9.470;2022-11-15T11:56:23;12.10;82.70
2441;DHT22;1231;53.988;9.470;2022-11-15T11:59:00;12.20;82.60
2441;DHT22;1231;53.988;9.470;2022-11-15T12:01:37;12.20;82.50
2441;DHT22;1231;53.988;9.470;2022-11-15T12:04:25;12.30;82.50
2441;DHT22;1231;53.988;9.470;2022-11-15T12:07:19;12.30;82.40
2441;DHT22;1231;53.988;9.470;2022-11-15T12:13:06;12.50;82.00
2441;DHT22;1231;53.988;9.470;2022-11-15T12:15:45;12.60;81.80
2441;DHT22;1231;53.988;9.470;2022-11-15T12:18:17;12.60;82.00
2441;DHT22;1231;53.988;9.470;2022-11-15T12:20:56;12.70;81.80
2441;DHT22;1231;53.988;9.470;2022-11-15T12:23:43;12.70;81.50
2441;DHT22;1231;53.988;9.470;2022-11-15T12:26:21;12.80;81.50
2441;DHT22;1231;53.988;9.470;2022-11-15T12:28:59;12.90;81.50
2441;DHT22;1231;53.988;9.470;2022-11-15T12:31:43;13.00;81.50
2441;DHT22;1231;53.988;9.470;2022-11-15T12:36:51;13.10;81.40
2441;DHT22;1231;53.988;9.470;2022-11-15T12:42:40;13.10;81.40
2441;DHT22;1231;53.988;9.470;2022-11-15T12:45:35;13.20;81.20
2441;DHT22;1231;53.988;9.470;2022-11-15T12:53:32;13.30;80.80
2441;DHT22;1231;53.988;9.470;2022-11-15T12:58:51;13.40;80.90
2441;DHT22;1231;53.988;9.470;2022-11-15T13:07:05;13.50;80.40
2441;DHT22;1231;53.988;9.470;2022-11-15T13:17:51;13.70;79.80
2441;DHT22;1231;53.988;9.470;2022-11-15T13:20:32;13.80;79.50
2441;DHT22;1231;53.988;9.470;2022-11-15T13:23:13;13.90;79.10
2441;DHT22;1231;53.988;9.470;2022-11-15T13:25:52;13.90;79.00
2441;DHT22;1231;53.988;9.470;2022-11-15T13:31:23;13.90;78.90
2441;DHT22;1231;53.988;9.470;2022-11-15T13:33:58;14.00;79.00
2441;DHT22;1231;53.988;9.470;2022-11-15T13:36:33;14.00;78.80
2441;DHT22;1231;53.988;9.470;2022-11-15T13:39:14;14.00;78.70
2441;DHT22;1231;53.988;9.470;2022-11-15T13:41:54;14.00;78.70
2441;DHT22;1231;53.988;9.470;2022-11-15T13:44:27;14.00;78.80
2441;DHT22;1231;53.988;9.470;2022-11-15T13:49:33;13.90;78.50
2441;DHT22;1231;53.988;9.470;2022-11-15T13:52:06;13.70;78.70
2441;DHT22;1231;53.988;9.470;2022-11-15T13:57:29;13.60;79.00
2441;DHT22;1231;53.988;9.470;2022-11-15T14:00:06;13.50;79.10
2441;DHT22;1231;53.988;9.470;2022-11-15T14:02:37;13.40;79.40
2441;DHT22;1231;53.988;9.470;2022-11-15T14:05:19;13.40;79.50
2441;DHT22;1231;53.988;9.470;2022-11-15T14:08:12;13.40;79.60
2441;DHT22;1231;53.988;9.470;2022-11-15T14:10:45;13.40;79.70
2441;DHT22;1231;53.988;9.470;2022-11-15T14:13:30;13.40;79.70
2441;DHT22;1231;53.988;9.470;2022-11-15T14:16:19;13.30;79.80
2441;DHT22;1231;53.988;9.470;2022-11-15T14:18:52;13.30;79.90
2441;DHT22;1231;53.988;9.470;2022-11-15T14:21:22;13.30;80.00
2441;DHT22;1231;53.988;9.470;2022-11-15T14:24:12;13.30;80.10
2441;DHT22;1231;53.988;9.470;2022-11-15T14:26:44;13.30;80.20
2441;DHT22;1231;53.988;9.470;2022-11-15T14:29:30;13.30;80.20
2441;DHT22;1231;53.988;9.470;2022-11-15T14:32:16;13.30;80.20
2441;DHT22;1231;53.988;9.470;2022-11-15T14:34:48;13.30;80.30
2441;DHT22;1231;53.988;9.470;2022-11-15T14:37:25;13.30;80.20
2441;DHT22;1231;53.988;9.470;2022-11-15T14:39:56;13.30;80.10
2441;DHT22;1231;53.988;9.470;2022-11-15T14:42:26;13.20;80.10
2441;DHT22;1231;53.988;9.470;2022-11-15T14:44:57;13.10;80.10
2441;DHT22;1231;53.988;9.470;2022-11-15T14:47:28;13.00;80.30
2441;DHT22;1231;53.988;9.470;2022-11-15T14:49:59;12.90;80.40
2441;DHT22;1231;53.988;9.470;2022-11-15T14:52:31;12.80;80.60
2441;DHT22;1231;53.988;9.470;2022-11-15T14:55:26;12.70;80.70
2441;DHT22;1231;53.988;9.470;2022-11-15T14:57:59;12.70;80.90
2441;DHT22;1231;53.988;9.470;2022-11-15T15:00:31;12.60;80.90
2441;DHT22;1231;53.988;9.470;2022-11-15T15:03:02;12.50;81.20
2441;DHT22;1231;53.988;9.470;2022-11-15T15:05:39;12.40;81.30
2441;DHT22;1231;53.988;9.470;2022-11-15T15:08:10;12.30;81.50
2441;DHT22;1231;53.988;9.470;2022-11-15T15:10:43;12.20;81.80
2441;DHT22;1231;53.988;9.470;2022-11-15T15:13:20;12.20;82.00
2441;DHT22;1231;53.988;9.470;2022-11-15T15:15:52;12.20;82.20
2441;DHT22;1231;53.988;9.470;2022-11-15T15:18:22;12.20;82.30
2441;DHT22;1231;53.988;9.470;2022-11-15T15:20:58;12.30;82.50
2441;DHT22;1231;53.988;9.470;2022-11-15T15:23:30;12.30;82.60
2441;DHT22;1231;53.988;9.470;2022-11-15T15:26:01;12.30;82.60
2441;DHT22;1231;53.988;9.470;2022-11-15T15:28:31;12.30;82.70
2441;DHT22;1231;53.988;9.470;2022-11-15T15:31:02;12.30;82.80
2441;DHT22;1231;53.988;9.470;2022-11-15T15:33:33;12.30;82.80
2441;DHT22;1231;53.988;9.470;2022-11-15T15:36:03;12.30;82.80
2441;DHT22;1231;53.988;9.470;2022-11-15T15:38:34;12.30;82.90
2441;DHT22;1231;53.988;9.470;2022-11-15T15:41:10;12.30;82.90
2441;DHT22;1231;53.988;9.470;2022-11-15T15:43:40;12.30;82.90
2441;DHT22;1231;53.988;9.470;2022-11-15T15:46:13;12.30;82.90
2441;DHT22;1231;53.988;9.470;2022-11-15T15:48:45;12.30;82.90
2441;DHT22;1231;53.988;9.470;2022-11-15T15:51:16;12.20;82.90
2441;DHT22;1231;53.988;9.470;2022-11-15T15:53:47;12.10;82.90
2441;DHT22;1231;53.988;9.470;2022-11-15T15:56:18;12.10;83.10
2441;DHT22;1231;53.988;9.470;2022-11-15T15:58:48;12.00;83.10
2441;DHT22;1231;53.988;9.470;2022-11-15T16:01:19;11.90;83.20
2441;DHT22;1231;53.988;9.470;2022-11-15T16:03:50;11.80;83.40
2441;DHT22;1231;53.988;9.470;2022-11-15T16:06:40;11.80;83.50
2441;DHT22;1231;53.988;9.470;2022-11-15T16:09:15;11.70;83.70
2441;DHT22;1231;53.988;9.470;2022-11-15T16:11:46;11.70;83.90
2441;DHT22;1231;53.988;9.470;2022-11-15T16:14:17;11.60;84.00
2441;DHT22;1231;53.988;9.470;2022-11-15T16:16:47;11.60;84.20
2441;DHT22;1231;53.988;9.470;2022-11-15T16:19:18;11.50;84.30
2441;DHT22;1231;53.988;9.470;2022-11-15T16:21:49;11.50;84.40
2441;DHT22;1231;53.988;9.470;2022-11-15T16:24:20;11.40;84.60
2441;DHT22;1231;53.988;9.470;2022-11-15T16:26:51;11.40;84.80
2441;DHT22;1231;53.988;9.470;2022-11-15T16:29:22;11.40;84.90
2441;DHT22;1231;53.988;9.470;2022-11-15T16:31:52;11.50;85.00
2441;DHT22;1231;53.988;9.470;2022-11-15T16:34:23;11.50;85.10
2441;DHT22;1231;53.988;9.470;2022-11-15T16:36:54;11.50;85.10
2441;DHT22;1231;53.988;9.470;2022-11-15T16:39:25;11.50;85.20
2441;DHT22;1231;53.988;9.470;2022-11-15T16:41:58;11.60;85.20
2441;DHT22;1231;53.988;9.470;2022-11-15T16:44:29;11.50;85.20
2441;DHT22;1231;53.988;9.470;2022-11-15T16:47:01;11.60;85.20
2441;DHT22;1231;53.988;9.470;2022-11-15T16:49:31;11.50;85.10
2441;DHT22;1231;53.988;9.470;2022-11-15T16:52:02;11.50;85.20
2441;DHT22;1231;53.988;9.470;2022-11-15T16:54:32;11.50;85.20
2441;DHT22;1231;53.988;9.470;2022-11-15T16:57:03;11.50;85.10
2441;DHT22;1231;53.988;9.470;2022-11-15T16:59:33;11.50;85.10
2441;DHT22;1231;53.988;9.470;2022-11-15T17:02:11;11.50;85.10
2441;DHT22;1231;53.988;9.470;2022-11-15T17:04:42;11.40;85.20
2441;DHT22;1231;53.988;9.470;2022-11-15T17:07:12;11.40;85.20
2441;DHT22;1231;53.988;9.470;2022-11-15T17:09:43;11.30;85.20
2441;DHT22;1231;53.988;9.470;2022-11-15T17:12:13;11.30;85.20
2441;DHT22;1231;53.988;9.470;2022-11-15T17:14:44;11.20;85.40
2441;DHT22;1231;53.988;9.470;2022-11-15T17:17:16;11.20;85.40
2441;DHT22;1231;53.988;9.470;2022-11-15T17:19:47;11.20;85.40
2441;DHT22;1231;53.988;9.470;2022-11-15T17:22:18;11.10;85.40
2441;DHT22;1231;53.988;9.470;2022-11-15T17:24:48;11.10;85.40
2441;DHT22;1231;53.988;9.470;2022-11-15T17:27:19;11.10;85.50
2441;DHT22;1231;53.988;9.470;2022-11-15T17:29:51;11.10;85.70
2441;DHT22;1231;53.988;9.470;2022-11-15T17:32:21;11.10;85.80
2441;DHT22;1231;53.988;9.470;2022-11-15T17:34:52;11.00;85.90
2441;DHT22;1231;53.988;9.470;2022-11-15T17:37:22;11.00;86.00
2441;DHT22;1231;53.988;9.470;2022-11-15T17:39:53;11.00;86.20
2441;DHT22;1231;53.988;9.470;2022-11-15T17:42:23;11.10;86.20
2441;DHT22;1231;53.988;9.470;2022-11-15T17:44:54;11.10;86.30
2441;DHT22;1231;53.988;9.470;2022-11-15T17:47:24;11.10;86.30
2441;DHT22;1231;53.988;9.470;2022-11-15T17:49:55;11.10;86.40
2441;DHT22;1231;53.988;9.470;2022-11-15T17:52:25;11.10;86.40
2441;DHT22;1231;53.988;9.470;2022-11-15T17:54:56;11.00;86.40
2441;DHT22;1231;53.988;9.470;2022-11-15T17:57:26;11.00;86.50
2441;DHT22;1231;53.988;9.470;2022-11-15T17:59:57;11.00;86.50
2441;DHT22;1231;53.988;9.470;2022-11-15T18:02:28;11.00;86.60
2441;DHT22;1231;53.988;9.470;2022-11-15T18:04:59;11.00;86.60
2441;DHT22;1231;53.988;9.470;2022-11-15T18:07:29;11.00;86.70
2441;DHT22;1231;53.988;9.470;2022-11-15T18:10:00;11.00;86.70
2441;DHT22;1231;53.988;9.470;2022-11-15T18:12:31;11.00;86.70
2441;DHT22;1231;53.988;9.470;2022-11-15T18:15:01;11.00;86.70
2441;DHT22;1231;53.988;9.470;2022-11-15T18:17:32;11.00;86.80
2441;DHT22;1231;53.988;9.470;2022-11-15T18:20:03;11.00;86.90
2441;DHT22;1231;53.988;9.470;2022-11-15T18:22:34;10.90;87.00
2441;DHT22;1231;53.988;9.470;2022-11-15T18:25:05;10.90;87.00
2441;DHT22;1231;53.988;9.470;2022-11-15T18:27:35;11.00;87.10
2441;DHT22;1231;53.988;9.470;2022-11-15T18:30:08;11.00;87.10
2441;DHT22;1231;53.988;9.470;2022-11-15T18:32:38;11.00;87.20
2441;DHT22;1231;53.988;9.470;2022-11-15T18:35:09;11.00;87.20
2441;DHT22;1231;53.988;9.470;2022-11-15T18:37:39;11.00;87.10
2441;DHT22;1231;53.988;9.470;2022-11-15T18:40:10;11.00;87.10
2441;DHT22;1231;53.988;9.470;2022-11-15T18:42:41;11.00;87.10
2441;DHT22;1231;53.988;9.470;2022-11-15T18:45:11;11.00;87.10
2441;DHT22;1231;53.988;9.470;2022-11-15T18:47:43;10.90;87.20